Springville, California
Current Conditions -  °F | °C
As of 4:15 PM on Friday 21 Nov 2014 (Local Time) from KPTV Reporting Station
Overcast Overcast  
Wind Chill: 54°   Ceiling: 1400
Heat Index: 54°   Visibility: 10mi
Dew Point: 46°   Wind: 3mph
Humidity: 77%   Direction: 80°E
Pressure: 30.13"   Gusts: NA
Location:  36.13°N, 118.82°W
Report Text: KPTV 220015Z AUTO 08003KT 10SM OVC014 12/08 A3013 RMK AO1
Loading
Personal Weather Stations






























Interactive Weather Map New forecast layout! Learn more

10-Day Weather Forecast

Advertisements
Track Severe Weather on mobile